createdAt,value
2023-03-27T00:01:27.646Z,96737.80
2023-03-27T00:03:55.749Z,96737.38
2023-03-27T00:06:25.087Z,96738.02
2023-03-27T00:08:52.392Z,96734.63
2023-03-27T00:11:21.205Z,96738.73
2023-03-27T00:13:51.309Z,96734.89
2023-03-27T00:16:21.767Z,96740.63
2023-03-27T00:18:48.794Z,96735.64
2023-03-27T00:21:15.954Z,96735.00
2023-03-27T00:23:42.907Z,96732.77
2023-03-27T00:26:10.120Z,96734.98
2023-03-27T00:28:37.142Z,96736.28
2023-03-27T00:31:04.256Z,96738.60
2023-03-27T00:33:31.146Z,96740.02
2023-03-27T00:35:58.080Z,96744.52
2023-03-27T00:38:24.838Z,96744.76
2023-03-27T00:40:54.825Z,96741.13
2023-03-27T00:43:28.175Z,96740.92
2023-03-27T00:46:01.733Z,96738.95
2023-03-27T00:48:31.270Z,96733.85
2023-03-27T00:50:59.242Z,96726.39
2023-03-27T00:53:28.890Z,96722.00
2023-03-27T00:56:01.378Z,96719.17
2023-03-27T00:58:42.696Z,96717.51
2023-03-27T01:01:13.140Z,96719.10
2023-03-27T01:03:42.597Z,96711.42
2023-03-27T01:06:14.029Z,96712.30
2023-03-27T01:08:43.301Z,96708.13
2023-03-27T01:11:30.903Z,96706.00
2023-03-27T01:14:25.438Z,96707.80
2023-03-27T01:17:07.637Z,96702.11
2023-03-27T01:20:14.821Z,96699.94
2023-03-27T01:23:09.389Z,96695.02
2023-03-27T01:26:06.054Z,96686.36
2023-03-27T01:29:12.810Z,96688.00
2023-03-27T01:32:07.570Z,96680.10
2023-03-27T01:34:42.811Z,96674.27
2023-03-27T01:37:18.497Z,96668.17
2023-03-27T01:39:55.795Z,96667.85
2023-03-27T01:42:26.028Z,96663.46
2023-03-27T01:45:21.296Z,96653.60
2023-03-27T01:48:06.210Z,96647.33
2023-03-27T01:50:37.737Z,96647.70
2023-03-27T01:53:30.712Z,96644.00
2023-03-27T01:56:04.560Z,96642.75
2023-03-27T01:58:48.146Z,96642.21
2023-03-27T02:01:24.748Z,96639.77
2023-03-27T02:03:58.139Z,96639.32
2023-03-27T02:06:33.659Z,96639.52
2023-03-27T02:09:08.688Z,96636.11
2023-03-27T02:11:41.491Z,96634.57
2023-03-27T02:14:17.241Z,96631.03
2023-03-27T02:16:47.897Z,96619.95
2023-03-27T02:19:23.478Z,96614.83
2023-03-27T02:21:50.329Z,96613.19
2023-03-27T02:24:18.876Z,96609.73
2023-03-27T02:26:50.487Z,96605.37
2023-03-27T02:29:28.084Z,96608.92
2023-03-27T02:32:25.406Z,96607.11
2023-03-27T02:35:10.337Z,96608.14
2023-03-27T02:38:08.385Z,96608.97
2023-03-27T02:40:55.011Z,96613.98
2023-03-27T02:43:34.681Z,96616.65
2023-03-27T02:46:31.680Z,96615.60
2023-03-27T02:49:04.920Z,96615.22
2023-03-27T02:51:37.842Z,96618.90
2023-03-27T02:54:40.584Z,96622.03
2023-03-27T02:57:14.447Z,96620.06
2023-03-27T02:59:50.955Z,96628.14
2023-03-27T03:02:25.672Z,96625.79
2023-03-27T03:04:59.195Z,96633.13
2023-03-27T03:07:29.081Z,96630.77
2023-03-27T03:09:55.682Z,96633.96
2023-03-27T03:12:23.340Z,96632.03
2023-03-27T03:14:50.287Z,96634.84
2023-03-27T03:17:17.497Z,96634.28
2023-03-27T03:19:44.189Z,96638.99
2023-03-27T03:22:11.669Z,96640.52
2023-03-27T03:24:42.384Z,96639.75
2023-03-27T03:27:09.892Z,96643.31
2023-03-27T03:29:37.660Z,96643.88
2023-03-27T03:32:06.440Z,96642.88
2023-03-27T03:34:36.865Z,96642.84
2023-03-27T03:37:03.773Z,96646.69
2023-03-27T03:39:30.982Z,96648.52
2023-03-27T03:41:57.727Z,96649.88
2023-03-27T03:44:24.587Z,96649.02
2023-03-27T03:46:51.322Z,96642.60
2023-03-27T03:49:18.025Z,96642.14
2023-03-27T03:51:44.807Z,96639.93
2023-03-27T03:54:12.169Z,96636.88
2023-03-27T03:56:41.761Z,96638.64
2023-03-27T03:59:10.126Z,96635.29
2023-03-27T04:01:36.917Z,96633.98
2023-03-27T04:04:04.464Z,96633.80
2023-03-27T04:06:32.693Z,96633.40
2023-03-27T04:08:59.520Z,96629.95
2023-03-27T04:11:26.381Z,96627.24
2023-03-27T04:13:53.148Z,96626.86
2023-03-27T04:16:20.170Z,96622.88
2023-03-27T04:18:50.762Z,96621.26
2023-03-27T04:21:17.900Z,96615.42
2023-03-27T04:23:48.770Z,96621.05
2023-03-27T04:26:16.400Z,96622.25
2023-03-27T04:28:43.500Z,96623.46
2023-03-27T04:31:11.073Z,96624.59
2023-03-27T04:33:40.194Z,96621.86
2023-03-27T04:36:08.941Z,96619.34
2023-03-27T04:38:40.948Z,96616.60
2023-03-27T04:41:08.217Z,96615.71
2023-03-27T04:43:37.013Z,96619.61
2023-03-27T04:46:08.152Z,96618.28
2023-03-27T04:48:39.084Z,96619.08
2023-03-27T04:51:07.297Z,96621.68
2023-03-27T04:53:36.564Z,96625.42
2023-03-27T04:56:05.596Z,96623.02
2023-03-27T04:58:33.402Z,96622.89
2023-03-27T05:01:02.584Z,96620.70
2023-03-27T05:03:29.526Z,96621.71
2023-03-27T05:05:56.550Z,96617.17
2023-03-27T05:08:23.265Z,96619.98
2023-03-27T05:10:50.060Z,96622.87
2023-03-27T05:13:16.802Z,96619.83
2023-03-27T05:15:43.816Z,96618.69
2023-03-27T05:18:10.866Z,96618.71
2023-03-27T05:20:37.762Z,96614.13
2023-03-27T05:23:04.620Z,96616.35
2023-03-27T05:25:33.048Z,96613.39
2023-03-27T05:28:00.762Z,96613.85
2023-03-27T05:30:28.323Z,96615.56
2023-03-27T05:32:58.430Z,96618.98
2023-03-27T05:35:28.700Z,96625.80
2023-03-27T05:37:57.398Z,96628.37
2023-03-27T05:40:26.854Z,96631.39
2023-03-27T05:42:55.502Z,96631.27
2023-03-27T05:45:23.508Z,96630.21
2023-03-27T05:47:56.227Z,96635.34
2023-03-27T05:50:25.796Z,96638.79
2023-03-27T05:53:01.600Z,96641.49
2023-03-27T05:55:28.835Z,96646.79
2023-03-27T05:57:55.638Z,96648.16
2023-03-27T06:00:26.251Z,96654.98
2023-03-27T06:02:58.341Z,96657.39
2023-03-27T06:05:27.822Z,96659.36
2023-03-27T06:07:54.621Z,96661.36
2023-03-27T06:10:22.141Z,96666.73
2023-03-27T06:12:49.463Z,96667.98
2023-03-27T06:15:17.138Z,96671.14
2023-03-27T06:17:47.699Z,96670.04
2023-03-27T06:20:15.693Z,96673.34
2023-03-27T06:22:49.087Z,96672.13
2023-03-27T06:25:16.851Z,96670.55
2023-03-27T06:27:45.763Z,96671.48
2023-03-27T06:30:17.574Z,96673.86
2023-03-27T06:32:52.598Z,96679.15
2023-03-27T06:35:21.220Z,96680.77
2023-03-27T06:37:51.344Z,96682.66
2023-03-27T06:40:24.396Z,96682.70
2023-03-27T06:43:02.873Z,96679.34
2023-03-27T06:45:33.527Z,96680.13
2023-03-27T06:48:17.947Z,96678.70
2023-03-27T06:50:49.831Z,96682.83
2023-03-27T06:55:48.240Z,96686.09
2023-03-27T06:58:15.300Z,96690.39
2023-03-27T07:00:43.655Z,96693.35
2023-03-27T07:03:12.111Z,96698.60
2023-03-27T07:05:41.083Z,96699.40
2023-03-27T07:08:22.527Z,96699.09
2023-03-27T07:11:07.518Z,96705.02
2023-03-27T07:13:38.977Z,96708.85
2023-03-27T07:16:06.470Z,96707.23
2023-03-27T07:18:33.424Z,96711.08
2023-03-27T07:21:00.878Z,96704.30
2023-03-27T07:23:27.811Z,96701.60
2023-03-27T07:26:01.935Z,96706.55
2023-03-27T07:28:28.918Z,96706.61
2023-03-27T07:30:56.284Z,96703.89
2023-03-27T07:33:24.110Z,96707.48
2023-03-27T07:35:51.177Z,96710.00
2023-03-27T07:38:18.734Z,96708.40
2023-03-27T07:40:46.867Z,96708.73
2023-03-27T07:43:15.838Z,96713.40
2023-03-27T07:45:42.649Z,96709.78
2023-03-27T07:48:15.028Z,96707.79
2023-03-27T07:50:43.350Z,96709.71
2023-03-27T07:53:33.285Z,96712.19
2023-03-27T07:56:03.813Z,96707.65
2023-03-27T07:58:31.168Z,96711.03
2023-03-27T08:01:02.874Z,96713.39
2023-03-27T08:03:31.060Z,96714.59
2023-03-27T08:06:00.305Z,96714.56
2023-03-27T08:08:28.427Z,96718.17
2023-03-27T08:10:55.524Z,96719.29
2023-03-27T08:13:22.590Z,96724.20
2023-03-27T08:15:49.706Z,96724.78
2023-03-27T08:18:16.894Z,96727.98
2023-03-27T08:20:43.784Z,96732.29
2023-03-27T08:23:10.860Z,96734.88
2023-03-27T08:25:37.635Z,96732.89
2023-03-27T08:28:04.423Z,96737.70
2023-03-27T08:30:31.254Z,96739.44
2023-03-27T08:33:00.318Z,96739.66
2023-03-27T08:35:27.347Z,96739.11
2023-03-27T08:37:54.109Z,96738.60
2023-03-27T08:40:29.714Z,96740.28
2023-03-27T08:43:03.436Z,96744.31
2023-03-27T08:45:38.971Z,96742.59
2023-03-27T08:48:14.914Z,96740.17
2023-03-27T08:50:47.315Z,96740.70
2023-03-27T08:53:31.115Z,96744.36
2023-03-27T08:55:58.476Z,96745.17
2023-03-27T08:58:25.494Z,96744.20
2023-03-27T09:01:26.669Z,96747.45
2023-03-27T09:04:17.742Z,96748.55
2023-03-27T09:06:54.854Z,96748.48
2023-03-27T09:09:35.339Z,96744.55
2023-03-27T09:12:31.216Z,96743.91
2023-03-27T09:15:08.276Z,96748.53
2023-03-27T09:17:46.893Z,96753.34
2023-03-27T09:20:18.105Z,96752.10
2023-03-27T09:22:58.233Z,96751.02
2023-03-27T09:25:46.846Z,96747.96
2023-03-27T09:28:23.929Z,96752.73
2023-03-27T09:30:51.267Z,96751.84
2023-03-27T09:33:18.149Z,96753.23
2023-03-27T09:35:45.901Z,96759.45
2023-03-27T09:38:18.798Z,96761.33
2023-03-27T09:40:56.405Z,96764.36
2023-03-27T09:43:28.907Z,96764.11
2023-03-27T09:45:58.314Z,96769.05
2023-03-27T09:48:39.835Z,96770.36
2023-03-27T09:51:40.916Z,96778.44
2023-03-27T09:54:09.647Z,96780.78
2023-03-27T09:56:43.867Z,96778.54
2023-03-27T09:59:21.011Z,96785.48
2023-03-27T10:01:50.646Z,96787.56
2023-03-27T10:04:21.963Z,96794.57
2023-03-27T10:07:05.760Z,96799.87
2023-03-27T10:09:38.047Z,96800.31
2023-03-27T10:12:08.186Z,96822.91
2023-03-27T10:14:48.473Z,96829.08
2023-03-27T10:17:24.771Z,96830.20
2023-03-27T10:19:58.276Z,96835.80
2023-03-27T10:22:32.020Z,96838.86
2023-03-27T10:25:01.836Z,96836.16
2023-03-27T10:27:31.374Z,96837.16
2023-03-27T10:29:58.126Z,96841.54
2023-03-27T10:32:46.299Z,96839.08
2023-03-27T10:35:27.471Z,96837.59
2023-03-27T10:37:55.628Z,96839.88
2023-03-27T10:40:27.076Z,96845.51
2023-03-27T10:42:59.760Z,96845.52
2023-03-27T10:45:26.708Z,96850.48
2023-03-27T10:48:00.534Z,96851.27
2023-03-27T10:50:58.634Z,96856.54
2023-03-27T10:54:01.972Z,96858.73
2023-03-27T10:56:54.935Z,96863.98
2023-03-27T10:59:41.021Z,96865.28
2023-03-27T11:02:17.649Z,96863.80
2023-03-27T11:04:51.963Z,96874.34
2023-03-27T11:07:27.628Z,96873.52
2023-03-27T11:10:21.827Z,96885.14
2023-03-27T11:13:01.870Z,96894.41
2023-03-27T11:15:42.444Z,96901.13
2023-03-27T11:18:18.821Z,96913.98
2023-03-27T11:20:57.001Z,96926.10
2023-03-27T11:23:44.847Z,96930.55
2023-03-27T11:26:16.050Z,96943.44
2023-03-27T11:28:49.704Z,96945.11
2023-03-27T11:31:38.491Z,96945.25
2023-03-27T11:34:28.869Z,96953.23
2023-03-27T11:37:24.627Z,96954.54
2023-03-27T11:40:04.625Z,96964.27
2023-03-27T11:42:37.189Z,96974.99
2023-03-27T11:45:07.683Z,96987.48
2023-03-27T11:47:41.181Z,96999.25
2023-03-27T11:50:30.858Z,96995.84
2023-03-27T11:53:23.707Z,97001.11
2023-03-27T11:56:04.314Z,97004.44
2023-03-27T11:58:45.603Z,97011.33
2023-03-27T12:01:28.131Z,97031.52
2023-03-27T12:04:17.465Z,97037.19
2023-03-27T12:07:04.274Z,97040.91
2023-03-27T12:09:48.660Z,97053.23
2023-03-27T12:12:42.517Z,97069.42
2023-03-27T12:15:29.370Z,97078.38
2023-03-27T12:18:00.584Z,97075.09
2023-03-27T12:20:52.909Z,97076.70
2023-03-27T12:23:49.165Z,97096.07
2023-03-27T12:26:49.532Z,97106.41
2023-03-27T12:29:31.255Z,97117.62
2023-03-27T12:32:13.154Z,97119.84
2023-03-27T12:34:55.058Z,97128.10
2023-03-27T12:37:28.112Z,97130.23
2023-03-27T12:39:59.435Z,97133.70
2023-03-27T12:43:03.189Z,97146.81
2023-03-27T12:45:29.888Z,97152.89
2023-03-27T12:48:10.750Z,97164.23
2023-03-27T12:50:55.668Z,97177.61
2023-03-27T12:53:25.647Z,97183.92
2023-03-27T12:56:27.378Z,97191.47
2023-03-27T12:58:55.664Z,97199.06
2023-03-27T13:01:51.611Z,97209.47
2023-03-27T13:04:48.164Z,97221.70
2023-03-27T13:07:38.353Z,97230.86
2023-03-27T13:10:48.145Z,97237.31
2023-03-27T13:13:20.636Z,97245.42
2023-03-27T13:16:06.819Z,97255.40
2023-03-27T13:19:12.700Z,97262.56
2023-03-27T13:21:59.853Z,97268.13
2023-03-27T13:24:40.713Z,97273.54
2023-03-27T13:27:24.766Z,97275.96
2023-03-27T13:29:53.461Z,97280.78
2023-03-27T13:32:31.630Z,97287.23
2023-03-27T13:35:28.497Z,97295.20
2023-03-27T13:38:00.851Z,97303.23
2023-03-27T13:40:27.835Z,97303.59
2023-03-27T13:43:22.136Z,97307.96
2023-03-27T13:45:55.623Z,97315.14
2023-03-27T13:48:39.791Z,97323.22
2023-03-27T13:51:41.961Z,97326.41
2023-03-27T13:54:22.603Z,97328.45
2023-03-27T13:57:03.592Z,97332.34
2023-03-27T13:59:47.272Z,97340.83
2023-03-27T14:02:42.184Z,97352.60
2023-03-27T14:05:37.059Z,97358.80
2023-03-27T14:08:21.063Z,97355.86
2023-03-27T14:11:09.226Z,97360.35
2023-03-27T14:13:55.926Z,97362.90
2023-03-27T14:16:36.902Z,97366.50
2023-03-27T14:19:17.532Z,97367.33
2023-03-27T14:22:08.204Z,97382.96
2023-03-27T14:24:44.377Z,97384.09
2023-03-27T14:27:17.389Z,97397.00
2023-03-27T14:29:45.428Z,97396.88
2023-03-27T14:32:15.788Z,97401.83
2023-03-27T14:37:45.295Z,97416.76
2023-03-27T14:40:42.510Z,97424.14
2023-03-27T14:43:12.447Z,97423.81
2023-03-27T14:45:41.169Z,97422.69
2023-03-27T14:48:22.834Z,97429.84
2023-03-27T14:50:54.507Z,97439.58
2023-03-27T14:53:27.983Z,97443.98
2023-03-27T14:55:56.047Z,97446.42
2023-03-27T14:58:25.874Z,97449.98
2023-03-27T15:01:00.150Z,97458.96
2023-03-27T15:03:30.959Z,97466.15
2023-03-27T15:06:27.116Z,97470.13
2023-03-27T15:08:58.994Z,97470.17
2023-03-27T15:11:33.536Z,97476.05
2023-03-27T15:14:03.124Z,97480.71
2023-03-27T15:16:36.172Z,97486.55
2023-03-27T15:19:14.477Z,97493.14
2023-03-27T15:22:02.058Z,97495.95
2023-03-27T15:24:51.253Z,97503.28
2023-03-27T15:27:40.860Z,97508.89
2023-03-27T15:30:18.013Z,97513.69
2023-03-27T15:32:50.821Z,97518.55
2023-03-27T15:35:23.779Z,97521.80
2023-03-27T15:37:51.174Z,97518.56
2023-03-27T15:40:26.799Z,97520.88
2023-03-27T15:43:02.354Z,97519.42
2023-03-27T15:45:39.972Z,97527.23
2023-03-27T15:48:25.207Z,97536.39
2023-03-27T15:51:01.704Z,97539.39
2023-03-27T15:53:40.888Z,97545.52
2023-03-27T15:56:23.310Z,97546.87
2023-03-27T15:59:06.789Z,97554.02
2023-03-27T16:01:39.474Z,97548.00
2023-03-27T16:04:14.772Z,97556.72
2023-03-27T16:06:45.877Z,97560.77
2023-03-27T16:09:28.753Z,97566.88
2023-03-27T16:11:57.782Z,97571.15
2023-03-27T16:14:33.007Z,97570.45
2023-03-27T16:17:09.884Z,97571.75
2023-03-27T16:19:48.309Z,97576.18
2023-03-27T16:22:23.623Z,97578.45
2023-03-27T16:24:51.478Z,97586.51
2023-03-27T16:27:24.049Z,97592.52
2023-03-27T16:29:51.827Z,97591.13
2023-03-27T16:32:20.649Z,97598.40
2023-03-27T16:34:47.908Z,97602.71
2023-03-27T16:37:15.769Z,97605.20
2023-03-27T16:39:43.200Z,97610.52
2023-03-27T16:42:17.267Z,97614.96
2023-03-27T16:44:45.614Z,97623.09
2023-03-27T16:47:14.343Z,97626.98
2023-03-27T16:49:41.723Z,97632.08
2023-03-27T16:52:08.465Z,97637.19
2023-03-27T16:54:35.322Z,97643.42
2023-03-27T16:57:02.644Z,97646.35
2023-03-27T16:59:29.390Z,97648.70
2023-03-27T17:01:56.291Z,97659.77
2023-03-27T17:04:23.308Z,97671.98
2023-03-27T17:06:50.856Z,97670.59
2023-03-27T17:09:18.290Z,97675.27
2023-03-27T17:11:45.047Z,97680.29
2023-03-27T17:14:12.203Z,97685.36
2023-03-27T17:16:39.963Z,97681.82
2023-03-27T17:19:07.174Z,97689.75
2023-03-27T17:21:34.034Z,97696.15
2023-03-27T17:24:01.110Z,97696.48
2023-03-27T17:26:31.172Z,97700.77
2023-03-27T17:28:59.134Z,97704.98
2023-03-27T17:31:27.728Z,97709.95
2023-03-27T17:33:55.674Z,97708.29
2023-03-27T17:36:36.773Z,97711.00
2023-03-27T17:39:08.300Z,97717.09
2023-03-27T17:41:35.084Z,97718.92
2023-03-27T17:44:01.878Z,97722.33
2023-03-27T17:46:28.714Z,97721.22
2023-03-27T17:48:57.258Z,97728.02
2023-03-27T17:51:24.080Z,97730.39
2023-03-27T17:53:50.886Z,97732.42
2023-03-27T17:56:17.735Z,97737.65
2023-03-27T17:58:50.122Z,97738.34
2023-03-27T18:01:19.578Z,97744.55
2023-03-27T18:03:46.850Z,97748.31
2023-03-27T18:06:17.465Z,97750.02
2023-03-27T18:08:46.258Z,97751.73
2023-03-27T18:11:15.703Z,97752.16
2023-03-27T18:13:42.856Z,97756.41
2023-03-27T18:16:13.609Z,97755.51
2023-03-27T18:18:40.532Z,97757.05
2023-03-27T18:21:07.715Z,97758.20
2023-03-27T18:23:46.169Z,97761.29
2023-03-27T18:26:14.606Z,97768.58
2023-03-27T18:28:41.654Z,97778.94
2023-03-27T18:31:11.415Z,97778.85
2023-03-27T18:33:38.689Z,97779.98
2023-03-27T18:36:11.548Z,97783.67
2023-03-27T18:38:40.375Z,97784.66
2023-03-27T18:41:07.891Z,97792.22
2023-03-27T18:43:34.744Z,97794.52
2023-03-27T18:46:07.158Z,97796.24
2023-03-27T18:48:35.467Z,97797.17
2023-03-27T18:51:04.825Z,97798.64
2023-03-27T18:53:32.162Z,97805.21
2023-03-27T18:56:00.031Z,97808.23
2023-03-27T18:58:29.070Z,97814.34
2023-03-27T19:00:57.307Z,97815.24
2023-03-27T19:03:26.784Z,97822.81
2023-03-27T19:05:53.999Z,97821.71
2023-03-27T19:08:22.022Z,97824.93
2023-03-27T19:10:49.464Z,97826.42
2023-03-27T19:13:16.349Z,97825.63
2023-03-27T19:15:44.089Z,97831.58
2023-03-27T19:18:11.217Z,97829.20
2023-03-27T19:20:38.220Z,97833.75
2023-03-27T19:23:05.150Z,97836.88
2023-03-27T19:25:35.412Z,97843.21
2023-03-27T19:28:03.929Z,97843.98
2023-03-27T19:30:32.510Z,97842.41
2023-03-27T19:32:59.499Z,97847.55
2023-03-27T19:35:26.682Z,97846.95
2023-03-27T19:37:54.788Z,97852.58
2023-03-27T19:40:22.230Z,97849.73
2023-03-27T19:42:48.958Z,97846.52
2023-03-27T19:45:16.398Z,97848.40
2023-03-27T19:47:43.449Z,97851.42
2023-03-27T19:50:11.192Z,97851.70
2023-03-27T19:52:38.039Z,97852.09
2023-03-27T19:55:05.611Z,97855.02
2023-03-27T19:57:32.586Z,97856.98
2023-03-27T19:59:59.342Z,97861.13
2023-03-27T20:02:27.891Z,97858.35
2023-03-27T20:04:54.841Z,97863.70
2023-03-27T20:07:21.816Z,97861.86
2023-03-27T20:09:48.597Z,97863.23
2023-03-27T20:12:15.945Z,97864.42
2023-03-27T20:14:46.535Z,97862.94
2023-03-27T20:17:27.972Z,97869.34
2023-03-27T20:19:55.782Z,97865.39
2023-03-27T20:22:22.654Z,97868.73
2023-03-27T20:24:49.604Z,97865.34
2023-03-27T20:27:19.892Z,97866.10
2023-03-27T20:29:48.083Z,97863.14
2023-03-27T20:32:15.121Z,97868.01
2023-03-27T20:34:41.854Z,97869.46
2023-03-27T20:37:14.666Z,97872.42
2023-03-27T20:39:47.439Z,97871.52
2023-03-27T20:42:16.722Z,97871.81
2023-03-27T20:44:44.716Z,97873.20
2023-03-27T20:47:12.492Z,97873.95
2023-03-27T20:49:43.079Z,97876.23
2023-03-27T20:52:19.693Z,97877.23
2023-03-27T20:54:48.141Z,97877.35
2023-03-27T20:57:15.259Z,97881.44
2023-03-27T20:59:41.952Z,97887.36
2023-03-27T21:02:16.621Z,97881.55
2023-03-27T21:04:43.384Z,97882.00
2023-03-27T21:07:10.332Z,97886.52
2023-03-27T21:09:38.595Z,97887.21
2023-03-27T21:12:05.939Z,97890.61
2023-03-27T21:14:32.949Z,97889.77
2023-03-27T21:16:59.987Z,97889.98
2023-03-27T21:19:26.942Z,97890.89
2023-03-27T21:21:53.887Z,97890.85
2023-03-27T21:24:20.890Z,97891.06
2023-03-27T21:26:47.842Z,97893.50
2023-03-27T21:29:15.571Z,97894.20
2023-03-27T21:31:43.356Z,97896.10
2023-03-27T21:34:11.263Z,97896.85
2023-03-27T21:36:41.820Z,97901.77
2023-03-27T21:39:09.266Z,97899.34
2023-03-27T22:00:35.633Z,97913.04
2023-03-27T22:03:03.175Z,97912.98
2023-03-27T22:05:30.051Z,97913.84
2023-03-27T22:07:57.741Z,97914.69
2023-03-27T22:10:24.482Z,97920.50
2023-03-27T22:12:51.184Z,97922.92
2023-03-27T22:15:18.181Z,97919.34
2023-03-27T22:17:45.193Z,97920.77
2023-03-27T22:20:12.114Z,97924.58
2023-03-27T22:22:38.932Z,97926.70
2023-03-27T22:25:06.327Z,97928.17
2023-03-27T22:27:33.161Z,97925.48
2023-03-27T22:30:00.223Z,97927.01
2023-03-27T22:32:27.018Z,97925.54
2023-03-27T22:34:53.745Z,97932.70
2023-03-27T22:37:21.063Z,97932.77
2023-03-27T22:39:47.807Z,97933.93
2023-03-27T22:42:14.673Z,97936.67
2023-03-27T22:44:41.694Z,97940.64
2023-03-27T22:47:08.621Z,97938.94
2023-03-27T22:49:36.456Z,97938.20
2023-03-27T22:52:04.707Z,97937.66
2023-03-27T22:54:31.517Z,97941.30
2023-03-27T22:56:59.117Z,97943.94
2023-03-27T22:59:26.559Z,97942.14
2023-03-27T23:01:53.356Z,97943.45
2023-03-27T23:04:20.109Z,97943.86
2023-03-27T23:06:46.977Z,97947.64
2023-03-27T23:09:13.797Z,97949.13
2023-03-27T23:11:41.369Z,97949.02
2023-03-27T23:14:08.110Z,97949.73
2023-03-27T23:16:34.807Z,97954.78
2023-03-27T23:19:01.563Z,97955.41
2023-03-27T23:21:28.393Z,97957.65
2023-03-27T23:23:55.601Z,97961.21
2023-03-27T23:26:27.654Z,97962.05
2023-03-27T23:28:54.424Z,97966.45
2023-03-27T23:31:21.269Z,97964.07
2023-03-27T23:33:50.725Z,97966.04
2023-03-27T23:36:21.028Z,97963.17
2023-03-27T23:38:47.935Z,97965.47
2023-03-27T23:41:16.103Z,97959.82
2023-03-27T23:43:43.625Z,97963.17
2023-03-27T23:46:12.762Z,97958.73
2023-03-27T23:48:42.041Z,97956.19
2023-03-27T23:51:10.721Z,97952.85
2023-03-27T23:53:38.264Z,97952.41
2023-03-27T23:56:05.841Z,97950.72
2023-03-27T23:58:33.241Z,97953.56
